sensor_id;sensor_type;location;lat;lon;timestamp;temperature;humidity
3037;DHT22;1528;52.550;13.408;2022-08-19T00:01:33;22.90;82.00
3037;DHT22;1528;52.550;13.408;2022-08-19T00:04:24;22.90;79.10
3037;DHT22;1528;52.550;13.408;2022-08-19T00:07:12;22.90;79.00
3037;DHT22;1528;52.550;13.408;2022-08-19T00:10:00;22.90;79.10
3037;DHT22;1528;52.550;13.408;2022-08-19T00:12:47;22.90;79.10
3037;DHT22;1528;52.550;13.408;2022-08-19T00:15:36;22.80;80.90
3037;DHT22;1528;52.550;13.408;2022-08-19T00:18:29;22.70;81.20
3037;DHT22;1528;52.550;13.408;2022-08-19T00:21:18;22.80;80.40
3037;DHT22;1528;52.550;13.408;2022-08-19T00:24:06;22.80;80.40
3037;DHT22;1528;52.550;13.408;2022-08-19T00:26:53;22.90;80.70
3037;DHT22;1528;52.550;13.408;2022-08-19T00:29:40;23.00;81.50
3037;DHT22;1528;52.550;13.408;2022-08-19T00:32:28;23.00;79.80
3037;DHT22;1528;52.550;13.408;2022-08-19T00:35:18;23.00;85.30
3037;DHT22;1528;52.550;13.408;2022-08-19T00:38:06;23.00;88.00
3037;DHT22;1528;52.550;13.408;2022-08-19T00:40:55;22.90;90.00
3037;DHT22;1528;52.550;13.408;2022-08-19T00:43:58;22.90;90.80
3037;DHT22;1528;52.550;13.408;2022-08-19T00:46:47;22.80;92.60
3037;DHT22;1528;52.550;13.408;2022-08-19T00:49:38;22.80;93.00
3037;DHT22;1528;52.550;13.408;2022-08-19T00:52:33;22.70;92.40
3037;DHT22;1528;52.550;13.408;2022-08-19T00:55:26;22.70;92.30
3037;DHT22;1528;52.550;13.408;2022-08-19T00:58:18;22.70;89.80
3037;DHT22;1528;52.550;13.408;2022-08-19T01:01:07;22.60;90.00
3037;DHT22;1528;52.550;13.408;2022-08-19T01:03:56;22.70;90.00
3037;DHT22;1528;52.550;13.408;2022-08-19T01:06:44;22.70;91.90
3037;DHT22;1528;52.550;13.408;2022-08-19T01:09:34;22.70;90.50
3037;DHT22;1528;52.550;13.408;2022-08-19T01:12:22;22.70;90.30
3037;DHT22;1528;52.550;13.408;2022-08-19T01:15:11;22.70;91.30
3037;DHT22;1528;52.550;13.408;2022-08-19T01:18:01;22.70;90.20
3037;DHT22;1528;52.550;13.408;2022-08-19T01:20:56;22.70;88.40
3037;DHT22;1528;52.550;13.408;2022-08-19T01:23:47;22.80;90.20
3037;DHT22;1528;52.550;13.408;2022-08-19T01:26:40;22.60;91.00
3037;DHT22;1528;52.550;13.408;2022-08-19T01:29:29;22.60;90.80
3037;DHT22;1528;52.550;13.408;2022-08-19T01:32:18;22.60;91.80
3037;DHT22;1528;52.550;13.408;2022-08-19T01:35:08;22.60;91.30
3037;DHT22;1528;52.550;13.408;2022-08-19T01:37:59;22.60;91.50
3037;DHT22;1528;52.550;13.408;2022-08-19T01:40:49;22.60;91.90
3037;DHT22;1528;52.550;13.408;2022-08-19T01:43:37;22.50;91.70
3037;DHT22;1528;52.550;13.408;2022-08-19T01:46:26;22.50;92.20
3037;DHT22;1528;52.550;13.408;2022-08-19T01:49:17;22.50;95.40
3037;DHT22;1528;52.550;13.408;2022-08-19T01:52:08;22.50;94.90
3037;DHT22;1528;52.550;13.408;2022-08-19T01:54:56;22.50;95.20
3037;DHT22;1528;52.550;13.408;2022-08-19T01:57:49;22.40;96.40
3037;DHT22;1528;52.550;13.408;2022-08-19T02:00:37;22.50;99.30
3037;DHT22;1528;52.550;13.408;2022-08-19T02:03:25;22.40;99.90
3037;DHT22;1528;52.550;13.408;2022-08-19T02:06:16;22.30;99.90
3037;DHT22;1528;52.550;13.408;2022-08-19T02:09:04;22.00;99.90
3037;DHT22;1528;52.550;13.408;2022-08-19T02:11:52;21.60;99.90
3037;DHT22;1528;52.550;13.408;2022-08-19T02:14:41;21.40;99.90
3037;DHT22;1528;52.550;13.408;2022-08-19T02:17:27;21.20;99.90
3037;DHT22;1528;52.550;13.408;2022-08-19T02:20:15;20.90;99.90
3037;DHT22;1528;52.550;13.408;2022-08-19T02:23:02;20.90;99.90
3037;DHT22;1528;52.550;13.408;2022-08-19T02:25:49;20.90;99.90
3037;DHT22;1528;52.550;13.408;2022-08-19T02:28:42;20.80;99.90
3037;DHT22;1528;52.550;13.408;2022-08-19T02:31:32;20.80;99.90
3037;DHT22;1528;52.550;13.408;2022-08-19T02:34:23;20.80;99.90
3037;DHT22;1528;52.550;13.408;2022-08-19T02:37:12;20.90;99.90
3037;DHT22;1528;52.550;13.408;2022-08-19T02:40:13;20.90;99.90
3037;DHT22;1528;52.550;13.408;2022-08-19T02:43:01;21.00;99.90
3037;DHT22;1528;52.550;13.408;2022-08-19T02:45:50;20.90;99.90
3037;DHT22;1528;52.550;13.408;2022-08-19T02:48:38;21.00;99.90
3037;DHT22;1528;52.550;13.408;2022-08-19T02:51:26;21.10;99.90
3037;DHT22;1528;52.550;13.408;2022-08-19T02:54:14;21.10;99.90
3037;DHT22;1528;52.550;13.408;2022-08-19T02:57:00;21.20;99.90
3037;DHT22;1528;52.550;13.408;2022-08-19T02:59:47;21.20;99.90
3037;DHT22;1528;52.550;13.408;2022-08-19T03:02:35;21.20;99.90
3037;DHT22;1528;52.550;13.408;2022-08-19T03:05:26;21.20;99.90
3037;DHT22;1528;52.550;13.408;2022-08-19T03:08:14;21.20;99.90
3037;DHT22;1528;52.550;13.408;2022-08-19T03:11:02;21.20;99.90
3037;DHT22;1528;52.550;13.408;2022-08-19T03:13:49;21.20;99.90
3037;DHT22;1528;52.550;13.408;2022-08-19T03:16:41;21.20;99.90
3037;DHT22;1528;52.550;13.408;2022-08-19T03:19:27;21.20;99.90
3037;DHT22;1528;52.550;13.408;2022-08-19T03:22:15;21.20;99.90
3037;DHT22;1528;52.550;13.408;2022-08-19T03:25:03;21.20;99.90
3037;DHT22;1528;52.550;13.408;2022-08-19T03:27:49;21.20;99.90
3037;DHT22;1528;52.550;13.408;2022-08-19T03:30:34;21.20;99.90
3037;DHT22;1528;52.550;13.408;2022-08-19T03:33:21;21.20;99.90
3037;DHT22;1528;52.550;13.408;2022-08-19T03:36:11;21.20;99.90
3037;DHT22;1528;52.550;13.408;2022-08-19T03:39:01;21.20;99.90
3037;DHT22;1528;52.550;13.408;2022-08-19T03:41:50;21.10;99.90
3037;DHT22;1528;52.550;13.408;2022-08-19T03:44:42;21.10;99.90
3037;DHT22;1528;52.550;13.408;2022-08-19T03:47:31;21.10;99.90
3037;DHT22;1528;52.550;13.408;2022-08-19T03:50:23;21.20;99.90
3037;DHT22;1528;52.550;13.408;2022-08-19T03:53:12;21.20;99.90
3037;DHT22;1528;52.550;13.408;2022-08-19T03:56:01;21.20;99.90
3037;DHT22;1528;52.550;13.408;2022-08-19T03:58:48;21.20;99.90
3037;DHT22;1528;52.550;13.408;2022-08-19T04:01:37;21.20;99.90
3037;DHT22;1528;52.550;13.408;2022-08-19T04:04:27;21.30;99.90
3037;DHT22;1528;52.550;13.408;2022-08-19T04:07:14;21.30;99.90
3037;DHT22;1528;52.550;13.408;2022-08-19T04:10:06;21.30;99.90
3037;DHT22;1528;52.550;13.408;2022-08-19T04:12:56;21.30;99.90
3037;DHT22;1528;52.550;13.408;2022-08-19T04:15:47;21.20;99.90
3037;DHT22;1528;52.550;13.408;2022-08-19T04:18:35;21.40;99.90
3037;DHT22;1528;52.550;13.408;2022-08-19T04:21:26;21.40;99.90
3037;DHT22;1528;52.550;13.408;2022-08-19T04:24:14;21.40;99.90
3037;DHT22;1528;52.550;13.408;2022-08-19T04:27:01;21.40;99.90
3037;DHT22;1528;52.550;13.408;2022-08-19T04:29:52;21.40;99.90
3037;DHT22;1528;52.550;13.408;2022-08-19T04:32:40;21.50;99.90
3037;DHT22;1528;52.550;13.408;2022-08-19T04:35:36;21.50;99.90
3037;DHT22;1528;52.550;13.408;2022-08-19T04:38:24;21.60;99.90
3037;DHT22;1528;52.550;13.408;2022-08-19T04:41:11;21.50;99.90
3037;DHT22;1528;52.550;13.408;2022-08-19T04:44:16;21.50;99.90
3037;DHT22;1528;52.550;13.408;2022-08-19T04:47:06;21.60;99.90
3037;DHT22;1528;52.550;13.408;2022-08-19T04:49:53;21.60;99.90
3037;DHT22;1528;52.550;13.408;2022-08-19T04:52:40;21.80;99.90
3037;DHT22;1528;52.550;13.408;2022-08-19T04:55:28;21.60;99.90
3037;DHT22;1528;52.550;13.408;2022-08-19T04:58:17;21.70;99.90
3037;DHT22;1528;52.550;13.408;2022-08-19T05:01:05;21.70;99.90
3037;DHT22;1528;52.550;13.408;2022-08-19T05:03:56;21.70;99.90
3037;DHT22;1528;52.550;13.408;2022-08-19T05:06:45;21.70;99.90
3037;DHT22;1528;52.550;13.408;2022-08-19T05:09:35;21.80;99.90
3037;DHT22;1528;52.550;13.408;2022-08-19T05:12:23;21.80;99.90
3037;DHT22;1528;52.550;13.408;2022-08-19T05:15:12;21.80;99.90
3037;DHT22;1528;52.550;13.408;2022-08-19T05:18:00;21.90;99.90
3037;DHT22;1528;52.550;13.408;2022-08-19T05:21:08;21.90;99.90
3037;DHT22;1528;52.550;13.408;2022-08-19T05:24:14;21.90;99.90
3037;DHT22;1528;52.550;13.408;2022-08-19T05:27:05;22.00;99.90
3037;DHT22;1528;52.550;13.408;2022-08-19T05:29:55;22.00;98.90
3037;DHT22;1528;52.550;13.408;2022-08-19T05:32:43;22.10;99.70
3037;DHT22;1528;52.550;13.408;2022-08-19T05:35:30;22.10;99.90
3037;DHT22;1528;52.550;13.408;2022-08-19T05:38:19;22.20;99.90
3037;DHT22;1528;52.550;13.408;2022-08-19T05:41:08;22.40;96.20
3037;DHT22;1528;52.550;13.408;2022-08-19T05:43:55;22.30;98.30
3037;DHT22;1528;52.550;13.408;2022-08-19T05:46:43;22.50;97.90
3037;DHT22;1528;52.550;13.408;2022-08-19T05:49:32;22.50;96.60
3037;DHT22;1528;52.550;13.408;2022-08-19T05:52:20;22.60;96.50
3037;DHT22;1528;52.550;13.408;2022-08-19T05:55:10;22.70;95.00
3037;DHT22;1528;52.550;13.408;2022-08-19T05:57:56;22.80;93.80
3037;DHT22;1528;52.550;13.408;2022-08-19T06:00:43;22.90;92.70
3037;DHT22;1528;52.550;13.408;2022-08-19T06:03:28;23.00;93.00
3037;DHT22;1528;52.550;13.408;2022-08-19T06:06:16;23.10;92.00
3037;DHT22;1528;52.550;13.408;2022-08-19T06:09:05;23.20;91.40
3037;DHT22;1528;52.550;13.408;2022-08-19T06:11:56;23.20;90.80
3037;DHT22;1528;52.550;13.408;2022-08-19T06:14:44;23.30;89.50
3037;DHT22;1528;52.550;13.408;2022-08-19T06:17:31;23.40;86.30
3037;DHT22;1528;52.550;13.408;2022-08-19T06:20:20;23.40;84.90
3037;DHT22;1528;52.550;13.408;2022-08-19T06:23:09;23.40;84.40
3037;DHT22;1528;52.550;13.408;2022-08-19T06:25:58;23.50;84.50
3037;DHT22;1528;52.550;13.408;2022-08-19T06:28:49;23.60;82.60
3037;DHT22;1528;52.550;13.408;2022-08-19T06:31:40;23.70;79.00
3037;DHT22;1528;52.550;13.408;2022-08-19T06:34:27;23.80;79.90
3037;DHT22;1528;52.550;13.408;2022-08-19T06:37:14;23.80;78.10
3037;DHT22;1528;52.550;13.408;2022-08-19T06:40:01;23.80;79.70
3037;DHT22;1528;52.550;13.408;2022-08-19T06:42:48;23.90;79.80
3037;DHT22;1528;52.550;13.408;2022-08-19T06:45:36;23.90;78.00
3037;DHT22;1528;52.550;13.408;2022-08-19T06:48:23;24.00;75.40
3037;DHT22;1528;52.550;13.408;2022-08-19T06:51:10;24.00;75.40
3037;DHT22;1528;52.550;13.408;2022-08-19T06:53:59;24.10;76.50
3037;DHT22;1528;52.550;13.408;2022-08-19T06:56:48;24.20;75.20
3037;DHT22;1528;52.550;13.408;2022-08-19T06:59:35;24.30;72.80
3037;DHT22;1528;52.550;13.408;2022-08-19T07:02:23;24.40;73.70
3037;DHT22;1528;52.550;13.408;2022-08-19T07:05:10;24.60;71.60
3037;DHT22;1528;52.550;13.408;2022-08-19T07:07:56;24.50;71.80
3037;DHT22;1528;52.550;13.408;2022-08-19T07:10:45;24.70;70.80
3037;DHT22;1528;52.550;13.408;2022-08-19T07:13:32;24.70;68.80
3037;DHT22;1528;52.550;13.408;2022-08-19T07:16:22;24.60;68.20
3037;DHT22;1528;52.550;13.408;2022-08-19T07:19:12;24.60;67.40
3037;DHT22;1528;52.550;13.408;2022-08-19T07:22:02;24.50;68.10
3037;DHT22;1528;52.550;13.408;2022-08-19T07:24:50;24.50;66.00
3037;DHT22;1528;52.550;13.408;2022-08-19T07:27:39;24.60;66.80
3037;DHT22;1528;52.550;13.408;2022-08-19T07:30:26;24.60;67.10
3037;DHT22;1528;52.550;13.408;2022-08-19T07:33:14;24.60;67.70
3037;DHT22;1528;52.550;13.408;2022-08-19T07:36:03;24.70;68.70
3037;DHT22;1528;52.550;13.408;2022-08-19T07:38:52;24.80;66.80
3037;DHT22;1528;52.550;13.408;2022-08-19T07:41:41;24.80;67.10
3037;DHT22;1528;52.550;13.408;2022-08-19T07:44:30;24.80;66.70
3037;DHT22;1528;52.550;13.408;2022-08-19T07:47:18;24.80;66.10
3037;DHT22;1528;52.550;13.408;2022-08-19T07:50:08;24.80;66.50
3037;DHT22;1528;52.550;13.408;2022-08-19T07:52:58;24.80;66.10
3037;DHT22;1528;52.550;13.408;2022-08-19T07:55:46;24.80;65.30
3037;DHT22;1528;52.550;13.408;2022-08-19T07:58:36;24.90;65.30
3037;DHT22;1528;52.550;13.408;2022-08-19T08:01:27;24.90;64.80
3037;DHT22;1528;52.550;13.408;2022-08-19T08:04:15;25.00;65.50
3037;DHT22;1528;52.550;13.408;2022-08-19T08:07:21;25.10;64.40
3037;DHT22;1528;52.550;13.408;2022-08-19T08:10:27;25.10;64.40
3037;DHT22;1528;52.550;13.408;2022-08-19T08:13:15;25.00;63.40
3037;DHT22;1528;52.550;13.408;2022-08-19T08:16:03;25.00;64.10
3037;DHT22;1528;52.550;13.408;2022-08-19T08:18:51;25.00;64.90
3037;DHT22;1528;52.550;13.408;2022-08-19T08:21:37;25.00;64.90
3037;DHT22;1528;52.550;13.408;2022-08-19T08:24:26;25.00;65.00
3037;DHT22;1528;52.550;13.408;2022-08-19T08:27:17;25.00;64.10
3037;DHT22;1528;52.550;13.408;2022-08-19T08:30:05;25.20;63.00
3037;DHT22;1528;52.550;13.408;2022-08-19T08:32:55;25.10;62.80
3037;DHT22;1528;52.550;13.408;2022-08-19T08:35:41;25.20;63.50
3037;DHT22;1528;52.550;13.408;2022-08-19T08:38:31;25.10;62.90
3037;DHT22;1528;52.550;13.408;2022-08-19T08:41:31;25.00;63.90
3037;DHT22;1528;52.550;13.408;2022-08-19T08:44:38;25.10;63.10
3037;DHT22;1528;52.550;13.408;2022-08-19T08:47:30;25.20;62.60
3037;DHT22;1528;52.550;13.408;2022-08-19T08:50:23;25.30;60.70
3037;DHT22;1528;52.550;13.408;2022-08-19T08:53:10;25.20;60.80
3037;DHT22;1528;52.550;13.408;2022-08-19T08:56:03;25.10;61.50
3037;DHT22;1528;52.550;13.408;2022-08-19T08:58:56;25.30;60.50
3037;DHT22;1528;52.550;13.408;2022-08-19T09:01:46;25.30;59.70
3037;DHT22;1528;52.550;13.408;2022-08-19T09:04:34;25.20;60.80
3037;DHT22;1528;52.550;13.408;2022-08-19T09:07:27;25.30;60.40
3037;DHT22;1528;52.550;13.408;2022-08-19T09:10:22;25.20;61.90
3037;DHT22;1528;52.550;13.408;2022-08-19T09:13:18;25.20;62.20
3037;DHT22;1528;52.550;13.408;2022-08-19T09:16:09;25.30;60.20
3037;DHT22;1528;52.550;13.408;2022-08-19T09:19:01;25.10;61.70
3037;DHT22;1528;52.550;13.408;2022-08-19T09:21:47;25.10;62.30
3037;DHT22;1528;52.550;13.408;2022-08-19T09:24:33;25.30;60.90
3037;DHT22;1528;52.550;13.408;2022-08-19T09:27:21;25.60;58.70
3037;DHT22;1528;52.550;13.408;2022-08-19T09:30:11;25.70;58.70
3037;DHT22;1528;52.550;13.408;2022-08-19T09:32:58;26.00;57.60
3037;DHT22;1528;52.550;13.408;2022-08-19T09:35:46;25.90;58.50
3037;DHT22;1528;52.550;13.408;2022-08-19T09:38:33;26.20;56.90
3037;DHT22;1528;52.550;13.408;2022-08-19T09:41:22;26.40;54.70
3037;DHT22;1528;52.550;13.408;2022-08-19T09:44:07;26.30;54.30
3037;DHT22;1528;52.550;13.408;2022-08-19T09:46:53;26.30;53.80
3037;DHT22;1528;52.550;13.408;2022-08-19T09:49:40;26.40;52.80
3037;DHT22;1528;52.550;13.408;2022-08-19T09:52:27;26.60;52.30
3037;DHT22;1528;52.550;13.408;2022-08-19T09:55:13;26.70;52.70
3037;DHT22;1528;52.550;13.408;2022-08-19T09:58:00;26.80;50.80
3037;DHT22;1528;52.550;13.408;2022-08-19T10:00:46;26.80;49.60
3037;DHT22;1528;52.550;13.408;2022-08-19T10:03:35;27.00;48.70
3037;DHT22;1528;52.550;13.408;2022-08-19T10:06:25;26.90;48.50
3037;DHT22;1528;52.550;13.408;2022-08-19T10:09:16;26.70;49.60
3037;DHT22;1528;52.550;13.408;2022-08-19T10:12:05;26.60;50.20
3037;DHT22;1528;52.550;13.408;2022-08-19T10:14:53;26.50;50.40
3037;DHT22;1528;52.550;13.408;2022-08-19T10:17:42;26.30;51.00
3037;DHT22;1528;52.550;13.408;2022-08-19T10:20:30;26.40;51.90
3037;DHT22;1528;52.550;13.408;2022-08-19T10:23:21;26.30;51.70
3037;DHT22;1528;52.550;13.408;2022-08-19T10:26:13;26.30;51.60
3037;DHT22;1528;52.550;13.408;2022-08-19T10:29:02;26.20;52.50
3037;DHT22;1528;52.550;13.408;2022-08-19T10:31:50;26.00;52.60
3037;DHT22;1528;52.550;13.408;2022-08-19T10:34:40;25.70;54.40
3037;DHT22;1528;52.550;13.408;2022-08-19T10:37:27;25.60;55.20
3037;DHT22;1528;52.550;13.408;2022-08-19T10:40:18;25.80;54.40
3037;DHT22;1528;52.550;13.408;2022-08-19T10:43:09;25.80;53.90
3037;DHT22;1528;52.550;13.408;2022-08-19T10:45:57;25.70;54.40
3037;DHT22;1528;52.550;13.408;2022-08-19T10:48:46;25.90;53.40
3037;DHT22;1528;52.550;13.408;2022-08-19T10:51:34;26.10;53.00
3037;DHT22;1528;52.550;13.408;2022-08-19T10:54:38;26.30;51.30
3037;DHT22;1528;52.550;13.408;2022-08-19T10:57:43;26.40;50.70
3037;DHT22;1528;52.550;13.408;2022-08-19T11:00:33;26.60;49.30
3037;DHT22;1528;52.550;13.408;2022-08-19T11:03:22;26.50;49.60
3037;DHT22;1528;52.550;13.408;2022-08-19T11:06:09;26.40;49.90
3037;DHT22;1528;52.550;13.408;2022-08-19T11:08:56;26.20;50.20
3037;DHT22;1528;52.550;13.408;2022-08-19T11:11:43;26.00;50.90
3037;DHT22;1528;52.550;13.408;2022-08-19T11:14:33;25.80;52.10
3037;DHT22;1528;52.550;13.408;2022-08-19T11:17:23;25.70;53.00
3037;DHT22;1528;52.550;13.408;2022-08-19T11:20:12;25.50;53.70
3037;DHT22;1528;52.550;13.408;2022-08-19T11:23:00;25.40;54.40
3037;DHT22;1528;52.550;13.408;2022-08-19T11:25:48;25.50;54.00
3037;DHT22;1528;52.550;13.408;2022-08-19T11:28:35;25.60;53.30
3037;DHT22;1528;52.550;13.408;2022-08-19T11:31:23;25.50;53.70
3037;DHT22;1528;52.550;13.408;2022-08-19T11:34:16;25.50;53.70
3037;DHT22;1528;52.550;13.408;2022-08-19T11:37:03;25.40;54.80
3037;DHT22;1528;52.550;13.408;2022-08-19T11:39:51;25.40;55.90
3037;DHT22;1528;52.550;13.408;2022-08-19T11:42:38;25.20;56.10
3037;DHT22;1528;52.550;13.408;2022-08-19T11:45:43;25.10;57.00
3037;DHT22;1528;52.550;13.408;2022-08-19T11:48:34;25.00;57.60
3037;DHT22;1528;52.550;13.408;2022-08-19T11:51:25;24.80;58.50
3037;DHT22;1528;52.550;13.408;2022-08-19T11:54:15;24.90;58.00
3037;DHT22;1528;52.550;13.408;2022-08-19T11:57:04;24.80;57.80
3037;DHT22;1528;52.550;13.408;2022-08-19T11:59:52;24.60;58.70
3037;DHT22;1528;52.550;13.408;2022-08-19T12:02:39;24.70;58.80
3037;DHT22;1528;52.550;13.408;2022-08-19T12:05:27;24.90;58.40
3037;DHT22;1528;52.550;13.408;2022-08-19T12:08:17;25.20;56.40
3037;DHT22;1528;52.550;13.408;2022-08-19T12:11:06;25.70;55.10
3037;DHT22;1528;52.550;13.408;2022-08-19T12:13:53;26.10;51.80
3037;DHT22;1528;52.550;13.408;2022-08-19T12:16:40;26.40;50.20
3037;DHT22;1528;52.550;13.408;2022-08-19T12:19:27;26.40;49.10
3037;DHT22;1528;52.550;13.408;2022-08-19T12:22:15;26.10;49.80
3037;DHT22;1528;52.550;13.408;2022-08-19T12:25:06;26.10;50.30
3037;DHT22;1528;52.550;13.408;2022-08-19T12:27:53;26.20;49.20
3037;DHT22;1528;52.550;13.408;2022-08-19T12:30:41;26.50;48.70
3037;DHT22;1528;52.550;13.408;2022-08-19T12:33:30;26.40;48.00
3037;DHT22;1528;52.550;13.408;2022-08-19T12:36:17;26.70;47.00
3037;DHT22;1528;52.550;13.408;2022-08-19T12:39:03;26.60;47.20
3037;DHT22;1528;52.550;13.408;2022-08-19T12:41:51;26.60;46.60
3037;DHT22;1528;52.550;13.408;2022-08-19T12:44:37;26.90;44.50
3037;DHT22;1528;52.550;13.408;2022-08-19T12:47:23;27.30;43.30
3037;DHT22;1528;52.550;13.408;2022-08-19T12:50:10;27.40;42.90
3037;DHT22;1528;52.550;13.408;2022-08-19T12:52:56;27.40;41.50
3037;DHT22;1528;52.550;13.408;2022-08-19T12:55:42;27.90;40.80
3037;DHT22;1528;52.550;13.408;2022-08-19T12:58:29;27.90;38.90
3037;DHT22;1528;52.550;13.408;2022-08-19T13:01:16;27.90;38.50
3037;DHT22;1528;52.550;13.408;2022-08-19T13:04:03;28.50;36.60
3037;DHT22;1528;52.550;13.408;2022-08-19T13:06:48;28.60;35.90
3037;DHT22;1528;52.550;13.408;2022-08-19T13:09:34;28.70;35.60
3037;DHT22;1528;52.550;13.408;2022-08-19T13:12:20;28.80;34.30
3037;DHT22;1528;52.550;13.408;2022-08-19T13:15:10;28.70;34.70
3037;DHT22;1528;52.550;13.408;2022-08-19T13:17:56;29.00;33.70
3037;DHT22;1528;52.550;13.408;2022-08-19T13:20:42;29.00;33.30
3037;DHT22;1528;52.550;13.408;2022-08-19T13:23:27;29.20;32.70
3037;DHT22;1528;52.550;13.408;2022-08-19T13:26:13;29.00;32.30
3037;DHT22;1528;52.550;13.408;2022-08-19T13:28:58;29.50;31.10
3037;DHT22;1528;52.550;13.408;2022-08-19T13:32:03;29.30;30.60
3037;DHT22;1528;52.550;13.408;2022-08-19T13:35:06;28.90;31.60
3037;DHT22;1528;52.550;13.408;2022-08-19T13:37:52;28.90;32.40
3037;DHT22;1528;52.550;13.408;2022-08-19T13:40:39;29.00;31.70
3037;DHT22;1528;52.550;13.408;2022-08-19T13:43:27;28.90;31.70
3037;DHT22;1528;52.550;13.408;2022-08-19T13:46:13;28.40;32.20
3037;DHT22;1528;52.550;13.408;2022-08-19T13:48:59;28.10;33.70
3037;DHT22;1528;52.550;13.408;2022-08-19T13:51:45;27.90;34.20
3037;DHT22;1528;52.550;13.408;2022-08-19T13:54:31;27.60;35.10
3037;DHT22;1528;52.550;13.408;2022-08-19T13:57:17;27.50;35.60
3037;DHT22;1528;52.550;13.408;2022-08-19T14:00:08;27.40;36.30
3037;DHT22;1528;52.550;13.408;2022-08-19T14:02:56;27.30;36.80
3037;DHT22;1528;52.550;13.408;2022-08-19T14:05:47;26.90;37.70
3037;DHT22;1528;52.550;13.408;2022-08-19T14:08:33;26.90;38.20
3037;DHT22;1528;52.550;13.408;2022-08-19T14:11:24;26.70;39.00
3037;DHT22;1528;52.550;13.408;2022-08-19T14:14:12;26.50;39.40
3037;DHT22;1528;52.550;13.408;2022-08-19T14:16:59;26.50;40.10
3037;DHT22;1528;52.550;13.408;2022-08-19T14:19:46;26.60;39.70
3037;DHT22;1528;52.550;13.408;2022-08-19T14:22:34;26.90;39.00
3037;DHT22;1528;52.550;13.408;2022-08-19T14:25:22;26.90;38.20
3037;DHT22;1528;52.550;13.408;2022-08-19T14:28:08;26.90;38.40
3037;DHT22;1528;52.550;13.408;2022-08-19T14:30:54;26.90;38.50
3037;DHT22;1528;52.550;13.408;2022-08-19T14:33:41;26.90;37.40
3037;DHT22;1528;52.550;13.408;2022-08-19T14:36:27;26.70;37.60
3037;DHT22;1528;52.550;13.408;2022-08-19T14:39:17;26.60;38.20
3037;DHT22;1528;52.550;13.408;2022-08-19T14:42:07;26.40;38.20
3037;DHT22;1528;52.550;13.408;2022-08-19T14:44:58;26.40;38.10
3037;DHT22;1528;52.550;13.408;2022-08-19T14:47:46;26.30;37.90
3037;DHT22;1528;52.550;13.408;2022-08-19T14:50:36;26.30;38.90
3037;DHT22;1528;52.550;13.408;2022-08-19T14:53:24;26.30;38.90
3037;DHT22;1528;52.550;13.408;2022-08-19T14:56:16;26.30;38.70
3037;DHT22;1528;52.550;13.408;2022-08-19T14:59:05;26.40;38.40
3037;DHT22;1528;52.550;13.408;2022-08-19T15:01:53;26.50;38.30
3037;DHT22;1528;52.550;13.408;2022-08-19T15:04:42;26.40;38.30
3037;DHT22;1528;52.550;13.408;2022-08-19T15:07:30;26.20;40.00
3037;DHT22;1528;52.550;13.408;2022-08-19T15:10:19;26.10;40.80
3037;DHT22;1528;52.550;13.408;2022-08-19T15:13:11;26.00;41.70
3037;DHT22;1528;52.550;13.408;2022-08-19T15:16:01;25.70;41.90
3037;DHT22;1528;52.550;13.408;2022-08-19T15:18:52;25.40;43.10
3037;DHT22;1528;52.550;13.408;2022-08-19T15:21:42;25.40;43.60
3037;DHT22;1528;52.550;13.408;2022-08-19T15:24:29;25.10;44.50
3037;DHT22;1528;52.550;13.408;2022-08-19T15:27:18;25.00;45.50
3037;DHT22;1528;52.550;13.408;2022-08-19T15:30:10;25.00;45.60
3037;DHT22;1528;52.550;13.408;2022-08-19T15:32:59;25.00;45.80
3037;DHT22;1528;52.550;13.408;2022-08-19T15:35:48;25.00;46.10
3037;DHT22;1528;52.550;13.408;2022-08-19T15:38:39;25.10;45.90
3037;DHT22;1528;52.550;13.408;2022-08-19T15:41:29;25.20;45.60
3037;DHT22;1528;52.550;13.408;2022-08-19T15:44:18;25.20;45.70
3037;DHT22;1528;52.550;13.408;2022-08-19T15:47:08;25.10;46.20
3037;DHT22;1528;52.550;13.408;2022-08-19T15:49:57;25.00;46.80
3037;DHT22;1528;52.550;13.408;2022-08-19T15:52:47;25.00;47.50
3037;DHT22;1528;52.550;13.408;2022-08-19T15:55:41;24.80;48.40
3037;DHT22;1528;52.550;13.408;2022-08-19T15:58:29;24.80;48.90
3037;DHT22;1528;52.550;13.408;2022-08-19T16:01:34;24.60;49.60
3037;DHT22;1528;52.550;13.408;2022-08-19T16:04:41;24.50;50.60
3037;DHT22;1528;52.550;13.408;2022-08-19T16:07:45;24.50;51.40
3037;DHT22;1528;52.550;13.408;2022-08-19T16:10:32;24.40;52.00
3037;DHT22;1528;52.550;13.408;2022-08-19T16:13:18;24.40;52.00
3037;DHT22;1528;52.550;13.408;2022-08-19T16:16:06;24.50;52.10
3037;DHT22;1528;52.550;13.408;2022-08-19T16:18:55;24.40;52.40
3037;DHT22;1528;52.550;13.408;2022-08-19T16:21:49;24.40;52.80
3037;DHT22;1528;52.550;13.408;2022-08-19T16:24:38;24.40;53.40
3037;DHT22;1528;52.550;13.408;2022-08-19T16:27:26;24.40;53.60
3037;DHT22;1528;52.550;13.408;2022-08-19T16:30:15;24.50;53.50
3037;DHT22;1528;52.550;13.408;2022-08-19T16:33:03;24.50;54.30
3037;DHT22;1528;52.550;13.408;2022-08-19T16:35:49;24.60;54.10
3037;DHT22;1528;52.550;13.408;2022-08-19T16:38:38;24.70;53.60
3037;DHT22;1528;52.550;13.408;2022-08-19T16:41:27;24.60;53.40
3037;DHT22;1528;52.550;13.408;2022-08-19T16:44:16;24.70;53.30
3037;DHT22;1528;52.550;13.408;2022-08-19T16:47:05;24.60;53.20
3037;DHT22;1528;52.550;13.408;2022-08-19T16:49:52;24.60;53.30
3037;DHT22;1528;52.550;13.408;2022-08-19T16:52:40;24.60;53.60
3037;DHT22;1528;52.550;13.408;2022-08-19T16:55:30;24.40;54.60
3037;DHT22;1528;52.550;13.408;2022-08-19T16:58:17;24.30;55.10
3037;DHT22;1528;52.550;13.408;2022-08-19T17:01:07;24.30;55.40
3037;DHT22;1528;52.550;13.408;2022-08-19T17:03:57;24.40;55.60
3037;DHT22;1528;52.550;13.408;2022-08-19T17:06:45;24.20;56.30
3037;DHT22;1528;52.550;13.408;2022-08-19T17:09:33;24.30;56.50
3037;DHT22;1528;52.550;13.408;2022-08-19T17:12:20;24.30;56.20
3037;DHT22;1528;52.550;13.408;2022-08-19T17:15:08;24.20;57.00
3037;DHT22;1528;52.550;13.408;2022-08-19T17:17:59;24.20;57.00
3037;DHT22;1528;52.550;13.408;2022-08-19T17:20:48;24.20;57.30
3037;DHT22;1528;52.550;13.408;2022-08-19T17:23:37;24.00;58.50
3037;DHT22;1528;52.550;13.408;2022-08-19T17:26:24;24.10;58.60
3037;DHT22;1528;52.550;13.408;2022-08-19T17:29:14;24.00;58.40
3037;DHT22;1528;52.550;13.408;2022-08-19T17:32:02;24.00;58.80
3037;DHT22;1528;52.550;13.408;2022-08-19T17:34:50;24.00;58.60
3037;DHT22;1528;52.550;13.408;2022-08-19T17:37:37;24.10;58.60
3037;DHT22;1528;52.550;13.408;2022-08-19T17:40:24;23.90;59.70
3037;DHT22;1528;52.550;13.408;2022-08-19T17:43:15;23.70;60.30
3037;DHT22;1528;52.550;13.408;2022-08-19T17:46:06;23.70;60.90
3037;DHT22;1528;52.550;13.408;2022-08-19T17:48:52;23.60;61.40
3037;DHT22;1528;52.550;13.408;2022-08-19T17:51:44;23.60;61.50
3037;DHT22;1528;52.550;13.408;2022-08-19T17:54:33;23.50;61.50
3037;DHT22;1528;52.550;13.408;2022-08-19T17:57:20;23.50;61.70
3037;DHT22;1528;52.550;13.408;2022-08-19T18:00:08;23.50;61.90
3037;DHT22;1528;52.550;13.408;2022-08-19T18:02:59;23.50;61.50
3037;DHT22;1528;52.550;13.408;2022-08-19T18:05:46;23.30;61.70